Time;durP1;ratioP1;P1;durP2;ratioP2;P2;SDS_P1;SDS_P2;PMS_P1;PMS_P2;Temp;Humidity;BMP_temperature;BMP_pressure;BME280_temperature;BME280_humidity;BME280_pressure;Samples;Min_cycle;Max_cycle;Signal;HPM_P1;HPM_P2
2024/01/21 00:00:14;;;;;;;15.35;4.90;;;;;;;-141.50;100.00;63355.56;5001655;28;20062;-81
2024/01/21 00:02:42;;;;;;;15.55;5.22;;;;;;;-141.50;100.00;63355.56;4961154;28;20437;-80
2024/01/21 00:05:08;;;;;;;12.27;4.95;;;;;;;-141.50;100.00;63355.56;4978133;28;20074;-82
2024/01/21 00:07:38;;;;;;;9.70;3.85;;;;;;;-141.50;100.00;63355.56;4978719;28;20035;-82
2024/01/21 00:10:08;;;;;;;16.40;5.03;;;;;;;-141.50;100.00;63355.56;4947474;28;20058;-80
2024/01/21 00:12:36;;;;;;;9.38;3.63;;;;;;;-141.50;100.00;63355.56;4959541;28;20047;-81
2024/01/21 00:15:04;;;;;;;8.68;3.35;;;;;;;-141.50;100.00;63355.56;4957466;28;20051;-80
2024/01/21 00:17:31;;;;;;;15.30;3.75;;;;;;;-141.50;100.00;63355.56;4974281;28;20048;-80
2024/01/21 00:19:57;;;;;;;9.38;3.92;;;;;;;-141.50;100.00;63355.56;5038952;28;20121;-81
2024/01/21 00:22:24;;;;;;;12.95;4.60;;;;;;;-141.50;100.00;63355.56;5004476;28;20392;-81
2024/01/21 00:24:51;;;;;;;11.82;4.15;;;;;;;-141.50;100.00;63355.56;4955753;28;20051;-81
2024/01/21 00:27:18;;;;;;;18.23;4.38;;;;;;;-141.50;100.00;63355.56;4955950;28;20083;-81
2024/01/21 00:29:45;;;;;;;12.70;4.15;;;;;;;-141.50;100.00;63355.56;4955662;28;20049;-81
2024/01/21 00:32:11;;;;;;;11.70;3.85;;;;;;;-141.50;100.00;63355.56;4953924;28;20055;-82
2024/01/21 00:34:39;;;;;;;10.25;3.78;;;;;;;-141.50;100.00;63355.56;4952163;28;20051;-81
2024/01/21 00:37:05;;;;;;;12.07;3.40;;;;;;;-141.50;100.00;63355.56;4951870;28;20053;-81
2024/01/21 00:39:33;;;;;;;11.70;3.88;;;;;;;-141.50;100.00;63355.56;4953066;28;20039;-81
2024/01/21 00:42:00;;;;;;;10.88;3.90;;;;;;;-141.50;100.00;63355.56;4952276;28;20529;-81
2024/01/21 00:44:34;;;;;;;6.47;2.88;;;;;;;-141.50;100.00;63355.56;4946202;28;20047;-81
2024/01/21 00:47:01;;;;;;;10.27;3.60;;;;;;;-141.50;100.00;63355.56;4951415;28;20050;-81
2024/01/21 00:49:29;;;;;;;9.75;3.97;;;;;;;-141.50;100.00;63355.56;4956038;28;20565;-81
2024/01/21 00:51:57;;;;;;;11.02;4.05;;;;;;;-141.50;100.00;63355.56;4994902;28;20045;-79
2024/01/21 00:54:23;;;;;;;12.38;4.00;;;;;;;-141.50;100.00;63355.56;4949589;28;20063;-81
2024/01/21 00:56:50;;;;;;;14.57;4.47;;;;;;;-141.50;100.00;63355.56;4946388;28;20040;-80
2024/01/21 00:59:17;;;;;;;11.23;4.20;;;;;;;-141.50;100.00;63355.56;4958566;28;20430;-80
2024/01/21 01:01:44;;;;;;;11.30;3.72;;;;;;;-141.50;100.00;63355.56;4977707;28;20050;-81
2024/01/21 01:04:11;;;;;;;9.45;3.83;;;;;;;-141.50;100.00;63355.56;4978407;28;20100;-80
2024/01/21 01:06:37;;;;;;;10.68;3.63;;;;;;;-141.50;100.00;63355.56;4963185;28;20047;-80
2024/01/21 01:09:04;;;;;;;10.90;3.42;;;;;;;-141.50;100.00;63355.56;4977965;28;20100;-82
2024/01/21 01:11:32;;;;;;;12.75;3.95;;;;;;;-141.50;100.00;63355.56;4977253;28;20136;-81
2024/01/21 01:14:00;;;;;;;11.02;3.33;;;;;;;-141.50;100.00;63355.56;4988807;28;20059;-81
2024/01/21 01:16:27;;;;;;;10.70;3.63;;;;;;;-141.50;100.00;63355.56;4981955;28;20046;-81
2024/01/21 01:18:53;;;;;;;11.68;3.47;;;;;;;-141.50;100.00;63355.56;4950150;28;20039;-80
2024/01/21 01:21:20;;;;;;;16.02;3.92;;;;;;;-141.50;100.00;63355.56;4952560;28;20058;-81
2024/01/21 01:23:47;;;;;;;9.05;3.67;;;;;;;-141.50;100.00;63355.56;4946080;28;20102;-79
2024/01/21 01:26:14;;;;;;;8.60;3.53;;;;;;;-141.50;100.00;63355.56;4950561;28;20067;-81
2024/01/21 01:28:43;;;;;;;7.40;3.28;;;;;;;-141.50;100.00;63355.56;4950600;28;20044;-80
2024/01/21 01:31:17;;;;;;;10.38;3.20;;;;;;;-141.50;100.00;63355.56;4951206;28;20129;-81
2024/01/21 01:33:44;;;;;;;12.05;3.45;;;;;;;-141.50;100.00;63355.56;4958047;28;20046;-79
2024/01/21 01:36:11;;;;;;;9.77;3.38;;;;;;;-141.50;100.00;63355.56;4976717;28;20055;-80
2024/01/21 01:38:39;;;;;;;9.15;3.40;;;;;;;-141.50;100.00;63355.56;4984238;28;20051;-79
2024/01/21 01:41:08;;;;;;;11.93;4.20;;;;;;;-141.50;100.00;63355.56;4938997;28;20050;-79
2024/01/21 01:43:34;;;;;;;7.95;3.20;;;;;;;-141.50;100.00;63355.56;4991612;28;20155;-81
2024/01/21 01:46:05;;;;;;;9.40;3.25;;;;;;;-141.50;100.00;63355.56;4970810;28;20145;-80
2024/01/21 01:48:33;;;;;;;16.45;3.60;;;;;;;-141.50;100.00;63355.56;4963015;28;20044;-80
2024/01/21 01:51:03;;;;;;;11.18;3.20;;;;;;;-141.50;100.00;63355.56;4997446;28;20039;-80
2024/01/21 01:53:34;;;;;;;5.55;2.47;;;;;;;-141.50;100.00;63355.56;4982059;28;20135;-80
2024/01/21 01:56:02;;;;;;;5.68;2.55;;;;;;;-141.50;100.00;63355.56;4977358;28;20460;-79
2024/01/21 01:58:30;;;;;;;8.90;2.63;;;;;;;-141.50;100.00;63355.56;4971902;28;20058;-80
2024/01/21 02:00:57;;;;;;;6.88;2.65;;;;;;;-141.50;100.00;63355.56;5006985;28;20047;-81
2024/01/21 02:03:24;;;;;;;6.82;2.80;;;;;;;-141.50;100.00;63355.56;4971916;28;20051;-80
2024/01/21 02:05:51;;;;;;;7.13;2.63;;;;;;;-141.50;100.00;63355.56;4995617;28;20311;-79
2024/01/21 02:08:19;;;;;;;7.68;2.67;;;;;;;-141.50;100.00;63355.56;4969120;28;20051;-79
2024/01/21 02:10:46;;;;;;;6.07;2.55;;;;;;;-141.50;100.00;63355.56;5020400;28;20069;-80
2024/01/21 02:13:13;;;;;;;8.75;2.70;;;;;;;-141.50;100.00;63355.56;4963589;28;20043;-80
2024/01/21 02:15:39;;;;;;;8.13;2.78;;;;;;;-141.50;100.00;63355.56;4964942;28;20070;-79
2024/01/21 02:18:06;;;;;;;7.35;2.05;;;;;;;-141.50;100.00;63355.56;4965731;28;20051;-79
2024/01/21 02:20:34;;;;;;;6.55;2.15;;;;;;;-141.50;100.00;63355.56;4974630;28;20058;-80
2024/01/21 02:23:04;;;;;;;6.93;2.58;;;;;;;-141.50;100.00;63355.56;4998035;28;20137;-80
2024/01/21 02:25:30;;;;;;;11.55;2.75;;;;;;;-141.50;100.00;63355.56;4954305;28;20489;-81
2024/01/21 02:28:00;;;;;;;6.72;2.38;;;;;;;-141.50;100.00;63355.56;4954094;28;20742;-79
2024/01/21 02:30:27;;;;;;;7.15;2.40;;;;;;;-141.50;100.00;63355.56;4968483;28;20059;-80
2024/01/21 02:32:54;;;;;;;6.95;2.42;;;;;;;-141.50;100.00;63355.56;4993935;28;20053;-80
2024/01/21 02:35:21;;;;;;;8.10;2.60;;;;;;;-141.50;100.00;63355.56;5023986;28;20120;-80
2024/01/21 02:37:47;;;;;;;5.35;2.08;;;;;;;-141.50;100.00;63355.56;4988188;28;20542;-81
2024/01/21 02:40:16;;;;;;;6.40;2.38;;;;;;;-141.50;100.00;63355.56;4959401;28;20059;-82
2024/01/21 02:42:43;;;;;;;12.43;3.25;;;;;;;-141.50;100.00;63355.56;5009634;28;20066;-80
2024/01/21 02:45:10;;;;;;;13.57;3.15;;;;;;;-141.50;100.00;63355.56;4990305;28;20055;-81
2024/01/21 02:47:37;;;;;;;11.85;3.22;;;;;;;-141.50;100.00;63355.56;4953432;28;20059;-81
2024/01/21 02:50:04;;;;;;;9.07;2.50;;;;;;;-141.50;100.00;63355.56;4965124;28;20061;-80
2024/01/21 02:52:31;;;;;;;7.82;2.78;;;;;;;-141.50;100.00;63355.56;4996091;28;20146;-81
2024/01/21 02:54:58;;;;;;;7.78;2.38;;;;;;;-141.50;100.00;63355.56;5032333;28;20048;-81
2024/01/21 02:57:24;;;;;;;11.70;3.00;;;;;;;-141.50;100.00;63355.56;4972347;28;20064;-80
2024/01/21 02:59:51;;;;;;;9.35;3.03;;;;;;;-141.50;100.00;63355.56;4981769;28;20069;-81
2024/01/21 03:02:18;;;;;;;8.10;2.70;;;;;;;-141.50;100.00;63355.56;4957390;28;20061;-80
2024/01/21 03:04:48;;;;;;;9.68;2.33;;;;;;;-141.50;100.00;63355.56;4956442;28;20077;-81
2024/01/21 03:07:15;;;;;;;10.43;3.10;;;;;;;-141.50;100.00;63355.56;4953427;28;20061;-81
2024/01/21 03:09:42;;;;;;;8.02;2.63;;;;;;;-141.50;100.00;63355.56;4997274;28;20078;-80
2024/01/21 03:12:08;;;;;;;8.18;2.65;;;;;;;-141.50;100.00;63355.56;5002145;28;20084;-80
2024/01/21 03:14:35;;;;;;;7.70;2.70;;;;;;;-141.50;100.00;63355.56;5014288;28;20083;-82
2024/01/21 03:17:03;;;;;;;7.50;2.60;;;;;;;-141.50;100.00;63355.56;4970059;28;20456;-82
2024/01/21 03:19:30;;;;;;;10.38;2.88;;;;;;;-141.50;100.00;63355.56;5003640;28;20060;-81
2024/01/21 03:21:57;;;;;;;10.85;2.95;;;;;;;-141.50;100.00;63355.56;4965423;28;20472;-80
2024/01/21 03:24:24;;;;;;;7.30;2.50;;;;;;;-141.50;100.00;63355.56;4950279;28;20478;-80
2024/01/21 03:26:51;;;;;;;6.00;2.08;;;;;;;-141.50;100.00;63355.56;4949954;28;20621;-80
2024/01/21 03:29:20;;;;;;;6.40;2.47;;;;;;;-141.50;100.00;63355.56;4948911;28;20071;-80
2024/01/21 03:31:49;;;;;;;4.82;2.08;;;;;;;-141.50;100.00;63355.56;4984283;28;20063;-80
2024/01/21 03:34:15;;;;;;;7.47;2.05;;;;;;;-141.50;100.00;63355.56;4949388;28;20055;-80
2024/01/21 03:36:42;;;;;;;14.77;4.55;;;;;;;-141.50;100.00;63355.56;4956978;28;20085;-81
2024/01/21 03:39:09;;;;;;;14.75;4.20;;;;;;;-141.50;100.00;63355.56;4999354;28;20053;-81
2024/01/21 03:41:36;;;;;;;5.28;2.70;;;;;;;-141.50;100.00;63355.56;4977742;28;20541;-81
2024/01/21 03:44:03;;;;;;;12.75;3.78;;;;;;;-141.50;100.00;63355.56;4950155;28;20522;-81
2024/01/21 03:46:31;;;;;;;12.25;2.92;;;;;;;-141.50;100.00;63355.56;4964098;28;20040;-81
2024/01/21 03:48:57;;;;;;;8.70;2.78;;;;;;;-141.50;100.00;63355.56;4971148;28;20065;-81
2024/01/21 03:51:24;;;;;;;12.95;3.45;;;;;;;-141.50;100.00;63355.56;5004020;28;20057;-80
2024/01/21 03:53:51;;;;;;;9.73;3.42;;;;;;;-141.50;100.00;63355.56;5016935;28;20534;-80
2024/01/21 03:56:18;;;;;;;9.75;3.17;;;;;;;-141.50;100.00;63355.56;5035164;28;20061;-81
2024/01/21 03:58:46;;;;;;;7.80;2.85;;;;;;;-141.50;100.00;63355.56;4990360;28;20109;-82
2024/01/21 04:01:12;;;;;;;6.18;2.45;;;;;;;-141.50;100.00;63355.56;4955167;28;20105;-81
2024/01/21 04:03:41;;;;;;;6.72;2.50;;;;;;;-141.50;100.00;63355.56;4975805;28;20189;-81
2024/01/21 04:06:08;;;;;;;7.55;2.22;;;;;;;-141.50;100.00;63355.56;4989665;28;20048;-81
2024/01/21 04:08:36;;;;;;;8.43;2.28;;;;;;;-141.50;100.00;63355.56;4982718;28;20107;-81
2024/01/21 04:11:03;;;;;;;3.88;1.30;;;;;;;-141.50;100.00;63355.56;4968289;28;20059;-80
2024/01/21 04:13:32;;;;;;;2.38;1.20;;;;;;;-141.50;100.00;63355.56;5054029;28;20112;-81
2024/01/21 04:15:59;;;;;;;4.88;1.20;;;;;;;-141.50;100.00;63355.56;5021279;28;20053;-81
2024/01/21 04:18:26;;;;;;;3.10;1.27;;;;;;;-141.50;100.00;63355.56;4977070;28;20043;-80
2024/01/21 04:20:53;;;;;;;2.45;1.10;;;;;;;-141.50;100.00;63355.56;4990004;28;20129;-80
2024/01/21 04:23:22;;;;;;;3.03;1.00;;;;;;;-141.50;100.00;63355.56;4992699;28;20050;-81
2024/01/21 04:25:49;;;;;;;2.70;1.00;;;;;;;-141.50;100.00;63355.56;4998388;28;20586;-81
2024/01/21 04:28:16;;;;;;;5.53;1.30;;;;;;;-141.50;100.00;63355.56;4965670;28;20086;-80
2024/01/21 04:30:45;;;;;;;4.38;1.30;;;;;;;-141.50;100.00;63355.56;4968756;28;20054;-80
2024/01/21 04:33:12;;;;;;;3.53;1.60;;;;;;;-141.50;100.00;63355.56;4952243;28;20153;-80
2024/01/21 04:35:39;;;;;;;3.83;1.27;;;;;;;-141.50;100.00;63355.56;4965292;28;20059;-80
2024/01/21 04:38:06;;;;;;;2.92;1.42;;;;;;;-141.50;100.00;63355.56;4992087;28;20512;-80
2024/01/21 04:40:33;;;;;;;3.88;1.20;;;;;;;-141.50;100.00;63355.56;4961336;28;20588;-81
2024/01/21 04:42:59;;;;;;;3.10;1.17;;;;;;;-141.50;100.00;63355.56;4968442;28;20063;-80
2024/01/21 04:45:29;;;;;;;3.35;1.13;;;;;;;-141.50;100.00;63355.56;4996772;28;20045;-81
2024/01/21 04:47:56;;;;;;;2.13;0.93;;;;;;;-141.50;100.00;63355.56;4959540;28;20145;-82
2024/01/21 04:50:23;;;;;;;3.42;1.15;;;;;;;-141.50;100.00;63355.56;5020898;28;20047;-82
2024/01/21 04:52:50;;;;;;;3.83;1.30;;;;;;;-141.50;100.00;63355.56;4952617;28;20089;-81
2024/01/21 04:55:16;;;;;;;2.42;0.95;;;;;;;-141.50;100.00;63355.56;4950817;28;20055;-81
2024/01/21 04:57:45;;;;;;;3.10;0.95;;;;;;;-141.50;100.00;63355.56;4952374;28;20064;-81
2024/01/21 05:00:12;;;;;;;3.05;1.13;;;;;;;-141.50;100.00;63355.56;4950061;28;20097;-80
2024/01/21 05:02:39;;;;;;;4.60;1.40;;;;;;;-141.50;100.00;63355.56;4950781;28;20170;-81
2024/01/21 05:05:06;;;;;;;3.45;1.15;;;;;;;-141.50;100.00;63355.56;4949853;28;20058;-81
2024/01/21 05:07:33;;;;;;;3.80;1.00;;;;;;;-141.50;100.00;63355.56;4942670;28;20051;-81
2024/01/21 05:09:59;;;;;;;2.08;1.13;;;;;;;-141.50;100.00;63355.56;4950126;28;20063;-81
2024/01/21 05:12:26;;;;;;;2.05;0.98;;;;;;;-141.50;100.00;63355.56;4950525;28;20059;-80
2024/01/21 05:14:55;;;;;;;3.67;1.30;;;;;;;-141.50;100.00;63355.56;4957390;28;20066;-81
2024/01/21 05:17:22;;;;;;;2.75;1.30;;;;;;;-141.50;100.00;63355.56;4968959;28;20050;-81
2024/01/21 05:19:49;;;;;;;5.15;1.20;;;;;;;-141.50;100.00;63355.56;5012211;28;20065;-80
2024/01/21 05:22:16;;;;;;;4.97;1.08;;;;;;;-141.50;100.00;63355.56;4963896;28;20066;-81
2024/01/21 05:24:42;;;;;;;3.35;1.00;;;;;;;-141.50;100.00;63355.56;4955814;28;20051;-79
2024/01/21 05:27:09;;;;;;;4.32;1.20;;;;;;;-141.50;100.00;63355.56;5000275;28;20075;-79
2024/01/21 05:29:36;;;;;;;5.25;1.25;;;;;;;-141.50;100.00;63355.56;4999716;28;20114;-82
2024/01/21 05:32:04;;;;;;;3.83;1.60;;;;;;;-141.50;100.00;63355.56;5003870;28;20372;-80
2024/01/21 05:34:30;;;;;;;2.45;1.20;;;;;;;-141.50;100.00;63355.56;5003497;28;20047;-79
2024/01/21 05:36:57;;;;;;;3.85;1.83;;;;;;;-141.50;100.00;63355.56;4983910;28;20051;-81
2024/01/21 05:39:24;;;;;;;3.15;1.40;;;;;;;-141.50;100.00;63355.56;4954262;28;20071;-81
2024/01/21 05:42:04;;;;;;;3.78;1.10;;;;;;;-141.50;100.00;63355.56;5027021;28;20059;-81
2024/01/21 05:44:32;;;;;;;2.78;1.10;;;;;;;-141.50;100.00;63355.56;4957570;28;20078;-82
2024/01/21 05:46:59;;;;;;;3.45;0.93;;;;;;;-141.50;100.00;63355.56;4958659;28;20062;-81
2024/01/21 05:49:26;;;;;;;2.22;0.90;;;;;;;-141.50;100.00;63355.56;4975952;28;20058;-81
2024/01/21 05:51:53;;;;;;;1.27;0.68;;;;;;;-141.50;100.00;63355.56;4990263;28;20154;-81
2024/01/21 05:54:20;;;;;;;3.28;0.73;;;;;;;-141.50;100.00;63355.56;4978155;28;20055;-80
2024/01/21 05:56:47;;;;;;;2.10;0.80;;;;;;;-141.50;100.00;63355.56;4957373;28;20113;-81
2024/01/21 05:59:16;;;;;;;2.17;1.00;;;;;;;-141.50;100.00;63355.56;4969366;28;20066;-81
2024/01/21 06:01:46;;;;;;;2.67;1.00;;;;;;;-141.50;100.00;63355.56;4969085;28;20148;-82
2024/01/21 06:04:13;;;;;;;3.88;1.55;;;;;;;-141.50;100.00;63355.56;4971807;28;20062;-81
2024/01/21 06:06:40;;;;;;;2.20;1.10;;;;;;;-141.50;100.00;63355.56;4969034;28;20055;-81
2024/01/21 06:09:10;;;;;;;2.15;1.17;;;;;;;-141.50;100.00;63355.56;4964837;28;20054;-81
2024/01/21 06:11:41;;;;;;;3.10;0.90;;;;;;;-141.50;100.00;63355.56;4973045;28;20051;-81
2024/01/21 06:14:08;;;;;;;2.08;1.20;;;;;;;-141.50;100.00;63355.56;4991944;28;20057;-81
2024/01/21 06:16:35;;;;;;;2.88;1.58;;;;;;;-141.50;100.00;63355.56;5013858;28;20051;-79
2024/01/21 06:19:02;;;;;;;2.90;1.20;;;;;;;-141.50;100.00;63355.56;5045676;28;20481;-81
2024/01/21 06:21:29;;;;;;;2.38;1.00;;;;;;;-141.50;100.00;63355.56;4968377;28;20050;-80
2024/01/21 06:23:56;;;;;;;2.65;0.90;;;;;;;-141.50;100.00;63355.56;4951773;28;20085;-80
2024/01/21 06:26:23;;;;;;;2.28;1.13;;;;;;;-141.50;100.00;63355.56;4988521;28;20128;-81
2024/01/21 06:28:50;;;;;;;2.55;1.23;;;;;;;-141.50;100.00;63355.56;4963558;28;20102;-83
2024/01/21 06:31:18;;;;;;;2.58;1.38;;;;;;;-141.50;100.00;63355.56;4989883;28;20059;-83
2024/01/21 06:33:45;;;;;;;3.55;1.48;;;;;;;-141.50;100.00;63355.56;5010861;28;20056;-82
2024/01/21 06:36:13;;;;;;;2.92;1.58;;;;;;;-141.50;100.00;63355.56;4999973;28;20134;-81
2024/01/21 06:38:39;;;;;;;4.95;1.95;;;;;;;-141.50;100.00;63355.56;4979951;28;20047;-81
2024/01/21 06:41:06;;;;;;;4.65;2.13;;;;;;;-141.50;100.00;63355.56;4988226;28;20063;-81
2024/01/21 06:43:33;;;;;;;4.13;2.20;;;;;;;-141.50;100.00;63355.56;5040004;28;20121;-80
2024/01/21 06:46:00;;;;;;;3.22;1.23;;;;;;;-141.50;100.00;63355.56;4951268;28;20071;-80
2024/01/21 06:48:26;;;;;;;2.95;1.48;;;;;;;-141.50;100.00;63355.56;5004204;28;20047;-81
2024/01/21 06:50:53;;;;;;;2.55;1.33;;;;;;;-141.50;100.00;63355.56;4946075;28;20078;-79
2024/01/21 06:53:20;;;;;;;4.18;2.05;;;;;;;-141.50;100.00;63355.56;4945409;28;20136;-81
2024/01/21 06:55:47;;;;;;;3.30;1.35;;;;;;;-141.50;100.00;63355.56;4965150;28;20654;-81
2024/01/21 06:58:13;;;;;;;5.30;2.10;;;;;;;-141.50;100.00;63355.56;4970820;28;20063;-81
2024/01/21 07:00:40;;;;;;;5.25;2.28;;;;;;;-141.50;100.00;63355.56;4955095;28;20078;-81
2024/01/21 07:03:07;;;;;;;5.45;1.20;;;;;;;-141.50;100.00;63355.56;4962233;28;20158;-81
2024/01/21 07:05:34;;;;;;;2.67;1.00;;;;;;;-141.50;100.00;63355.56;4973466;28;20051;-82
2024/01/21 07:08:01;;;;;;;1.05;0.60;;;;;;;-141.50;100.00;63355.56;4957873;28;20410;-81
2024/01/21 07:10:30;;;;;;;1.83;0.75;;;;;;;-141.50;100.00;63355.56;4981672;28;20051;-81
2024/01/21 07:12:56;;;;;;;3.85;0.98;;;;;;;-141.50;100.00;63355.56;4952385;28;20052;-81
2024/01/21 07:15:25;;;;;;;2.65;0.90;;;;;;;-141.50;100.00;63355.56;4945420;28;20064;-81
2024/01/21 07:17:51;;;;;;;2.78;1.20;;;;;;;-141.50;100.00;63355.56;4953008;28;20061;-81
2024/01/21 07:20:19;;;;;;;2.20;0.80;;;;;;;-141.50;100.00;63355.56;5011651;28;20057;-81
2024/01/21 07:22:46;;;;;;;2.15;0.77;;;;;;;-141.50;100.00;63355.56;4966013;28;20515;-80
2024/01/21 07:25:14;;;;;;;2.53;0.80;;;;;;;-141.50;100.00;63355.56;4955610;28;20054;-81
2024/01/21 07:27:42;;;;;;;2.03;0.63;;;;;;;-141.50;100.00;63355.56;4953536;28;20082;-80
2024/01/21 07:30:11;;;;;;;3.20;0.88;;;;;;;-141.50;100.00;63355.56;5030877;28;20068;-80
2024/01/21 07:32:39;;;;;;;1.80;0.70;;;;;;;-141.50;100.00;63355.56;4950931;28;20541;-81
2024/01/21 07:35:06;;;;;;;1.88;1.05;;;;;;;-141.50;100.00;63355.56;4963605;28;20066;-80
2024/01/21 07:37:33;;;;;;;14.95;3.55;;;;;;;-141.50;100.00;63355.56;4953457;28;20118;-79
2024/01/21 07:40:01;;;;;;;39.63;9.75;;;;;;;-141.50;100.00;63355.56;4969527;28;20073;-80
2024/01/21 07:42:28;;;;;;;47.10;11.73;;;;;;;-141.50;100.00;63355.56;4986482;28;20082;-80
2024/01/21 07:44:55;;;;;;;17.77;4.93;;;;;;;-141.50;100.00;63355.56;4964925;28;20065;-80
2024/01/21 07:47:21;;;;;;;8.82;2.08;;;;;;;-141.50;100.00;63355.56;4955828;28;20402;-79
2024/01/21 07:49:48;;;;;;;4.65;1.90;;;;;;;-141.50;100.00;63355.56;4988100;28;20047;-80
2024/01/21 07:52:16;;;;;;;4.10;1.52;;;;;;;-141.50;100.00;63355.56;4987009;28;20147;-81
2024/01/21 07:54:43;;;;;;;3.42;1.40;;;;;;;-141.50;100.00;63355.56;4959184;28;20023;-80
2024/01/21 07:57:10;;;;;;;1.95;1.15;;;;;;;-141.50;100.00;63355.56;4952071;28;20063;-79
2024/01/21 07:59:37;;;;;;;2.65;1.02;;;;;;;-141.50;100.00;63355.56;4946317;28;20134;-79
2024/01/21 08:02:04;;;;;;;4.10;1.15;;;;;;;-141.50;100.00;63355.56;4946224;28;20146;-80
2024/01/21 08:04:31;;;;;;;4.72;1.13;;;;;;;-141.50;100.00;63355.56;4946431;28;20610;-79
2024/01/21 08:06:58;;;;;;;3.13;1.00;;;;;;;-141.50;100.00;63355.56;4958958;28;20139;-81
2024/01/21 08:09:24;;;;;;;2.92;0.93;;;;;;;-141.50;100.00;63355.56;4960999;28;20063;-79
2024/01/21 08:11:52;;;;;;;8.18;1.63;;;;;;;-141.50;100.00;63355.56;4967273;28;20054;-81
2024/01/21 08:14:18;;;;;;;5.85;1.90;;;;;;;-141.50;100.00;63355.56;4969990;28;20059;-79
2024/01/21 08:16:48;;;;;;;7.05;1.60;;;;;;;-141.50;100.00;63355.56;4944458;28;20102;-79
2024/01/21 08:19:15;;;;;;;5.80;1.90;;;;;;;-141.50;100.00;63355.56;4947494;28;20047;-78
2024/01/21 08:21:42;;;;;;;5.72;1.50;;;;;;;-141.50;100.00;63355.56;4958604;28;20101;-78
2024/01/21 08:24:08;;;;;;;8.43;2.30;;;;;;;-141.50;100.00;63355.56;5007195;28;20061;-77
2024/01/21 08:26:35;;;;;;;6.38;2.35;;;;;;;-141.50;100.00;63355.56;5023634;28;20050;-79
2024/01/21 08:29:03;;;;;;;6.18;2.75;;;;;;;-141.50;100.00;63355.56;4978169;28;20057;-79
2024/01/21 08:31:30;;;;;;;7.15;2.60;;;;;;;-141.50;100.00;63355.56;4952368;28;20054;-79
2024/01/21 08:33:56;;;;;;;11.25;2.90;;;;;;;-141.50;100.00;63355.56;4966944;28;20731;-79
2024/01/21 08:36:23;;;;;;;12.35;2.95;;;;;;;-141.50;100.00;63355.56;5018886;28;20082;-78
2024/01/21 08:38:51;;;;;;;8.57;2.75;;;;;;;-141.50;100.00;63355.56;4963623;28;20057;-78
2024/01/21 08:41:18;;;;;;;14.52;4.40;;;;;;;-141.50;100.00;63355.56;4970858;28;20063;-78
2024/01/21 08:43:44;;;;;;;11.35;3.70;;;;;;;-141.50;100.00;63355.56;4980960;28;20475;-78
2024/01/21 08:46:11;;;;;;;8.57;2.72;;;;;;;-141.50;100.00;63355.56;4990260;28;20600;-78
2024/01/21 08:48:41;;;;;;;4.82;2.00;;;;;;;-141.50;100.00;63355.56;4960919;28;20043;-79
2024/01/21 08:51:09;;;;;;;8.65;2.08;;;;;;;-141.50;100.00;63355.56;4982860;28;20080;-78
2024/01/21 08:53:37;;;;;;;3.60;1.48;;;;;;;-141.50;100.00;63355.56;4964319;28;20058;-78
2024/01/21 08:56:04;;;;;;;2.50;1.02;;;;;;;-141.50;100.00;63355.56;4961328;28;20709;-78
2024/01/21 08:58:31;;;;;;;1.98;0.77;;;;;;;-141.50;100.00;63355.56;4935215;28;20039;-78
2024/01/21 09:00:59;;;;;;;1.98;0.93;;;;;;;-141.50;100.00;63355.56;4995595;28;20419;-78
2024/01/21 09:03:30;;;;;;;1.35;0.75;;;;;;;-141.50;100.00;63355.56;4945930;28;20058;-77
2024/01/21 09:05:57;;;;;;;1.83;0.55;;;;;;;-141.50;100.00;63355.56;4946938;28;20565;-81
2024/01/21 09:08:24;;;;;;;0.98;0.60;;;;;;;-141.50;100.00;63355.56;4951489;28;20062;-83
2024/01/21 09:10:51;;;;;;;1.00;0.60;;;;;;;-141.50;100.00;63355.56;4951810;28;20517;-79
2024/01/21 09:13:19;;;;;;;3.70;1.10;;;;;;;-141.50;100.00;63355.56;4950866;28;20113;-78
2024/01/21 09:15:46;;;;;;;6.38;1.23;;;;;;;-141.50;100.00;63355.56;4957596;28;20047;-76
2024/01/21 09:18:12;;;;;;;2.45;0.98;;;;;;;-141.50;100.00;63355.56;4955912;28;20064;-77
2024/01/21 09:20:39;;;;;;;4.50;1.02;;;;;;;-141.50;100.00;63355.56;4960238;28;20410;-81
2024/01/21 09:23:06;;;;;;;2.45;1.00;;;;;;;-141.50;100.00;63355.56;4964757;28;20067;-78
2024/01/21 09:25:33;;;;;;;2.03;0.98;;;;;;;-141.50;100.00;63355.56;4968827;28;20111;-78
2024/01/21 09:28:00;;;;;;;2.15;0.77;;;;;;;-141.50;100.00;63355.56;4943163;28;20490;-80
2024/01/21 09:30:26;;;;;;;2.95;1.08;;;;;;;-141.50;100.00;63355.56;4960091;28;20047;-78
2024/01/21 09:32:53;;;;;;;3.00;1.30;;;;;;;-141.50;100.00;63355.56;4957792;28;20055;-80
2024/01/21 09:35:20;;;;;;;1.30;0.70;;;;;;;-141.50;100.00;63355.56;4955820;28;20656;-80
2024/01/21 09:37:47;;;;;;;1.35;0.70;;;;;;;-141.50;100.00;63355.56;4953970;28;20043;-81
2024/01/21 09:40:14;;;;;;;1.35;0.70;;;;;;;-141.50;100.00;63355.56;4941506;28;20059;-81
2024/01/21 09:42:41;;;;;;;2.22;0.70;;;;;;;-141.50;100.00;63355.56;4965196;28;20066;-81
2024/01/21 09:45:10;;;;;;;0.52;0.45;;;;;;;-141.50;100.00;63355.56;4951064;28;20047;-81
2024/01/21 09:47:37;;;;;;;2.13;0.70;;;;;;;-141.50;100.00;63355.56;4947767;28;20714;-81
2024/01/21 09:50:05;;;;;;;1.73;0.50;;;;;;;-141.50;100.00;63355.56;4950533;28;20051;-81
2024/01/21 09:52:32;;;;;;;3.78;0.60;;;;;;;-141.50;100.00;63355.56;4934305;28;20115;-80
2024/01/21 09:54:59;;;;;;;3.47;0.82;;;;;;;-141.50;100.00;63355.56;4957615;28;20513;-79
2024/01/21 09:57:26;;;;;;;3.45;0.60;;;;;;;-141.50;100.00;63355.56;4968593;28;20081;-80
2024/01/21 09:59:55;;;;;;;2.30;0.88;;;;;;;-141.50;100.00;63355.56;4936888;28;20035;-80
2024/01/21 10:02:23;;;;;;;3.05;0.60;;;;;;;-141.50;100.00;63355.56;4975860;28;20067;-80
2024/01/21 10:04:50;;;;;;;1.80;0.63;;;;;;;-141.50;100.00;63355.56;4958012;28;20047;-80
2024/01/21 10:07:17;;;;;;;3.50;0.82;;;;;;;-141.50;100.00;63355.56;4950320;28;20579;-80
2024/01/21 10:09:53;;;;;;;2.13;0.80;;;;;;;-141.50;100.00;63355.56;4960710;28;20517;-80
2024/01/21 10:12:23;;;;;;;2.53;0.80;;;;;;;-141.50;100.00;63355.56;4956139;28;20098;-79
2024/01/21 10:14:50;;;;;;;1.63;0.70;;;;;;;-141.50;100.00;63355.56;4982602;28;20034;-80
2024/01/21 10:17:23;;;;;;;2.35;0.63;;;;;;;-141.50;100.00;63355.56;4952604;28;20055;-80
2024/01/21 10:19:54;;;;;;;4.30;0.77;;;;;;;-141.50;100.00;63355.56;4948755;28;20051;-80
2024/01/21 10:22:24;;;;;;;1.48;0.60;;;;;;;-141.50;100.00;63355.56;4940044;28;20058;-80
2024/01/21 10:24:51;;;;;;;2.13;0.50;;;;;;;-141.50;100.00;63355.56;4957134;28;20047;-81
2024/01/21 10:27:18;;;;;;;1.92;0.50;;;;;;;-141.50;100.00;63355.56;4973959;28;20070;-80
2024/01/21 10:29:46;;;;;;;2.97;1.00;;;;;;;-141.50;100.00;63355.56;4994431;28;20046;-79
2024/01/21 10:32:15;;;;;;;1.85;0.60;;;;;;;-141.50;100.00;63355.56;4959004;28;20428;-80
2024/01/21 10:34:45;;;;;;;4.18;0.85;;;;;;;-141.50;100.00;63355.56;4980316;28;20050;-81
2024/01/21 10:37:16;;;;;;;1.50;0.70;;;;;;;-141.50;100.00;63355.56;4956511;28;20155;-80
2024/01/21 10:39:45;;;;;;;2.13;0.90;;;;;;;-141.50;100.00;63355.56;4951859;28;20389;-80
2024/01/21 10:42:15;;;;;;;1.27;0.63;;;;;;;-141.50;100.00;63355.56;4964259;28;20047;-80
2024/01/21 10:44:46;;;;;;;1.77;0.70;;;;;;;-141.50;100.00;63355.56;4968772;28;20085;-79
2024/01/21 10:47:14;;;;;;;1.17;0.60;;;;;;;-141.50;100.00;63355.56;4961253;28;20081;-78
2024/01/21 10:49:42;;;;;;;4.70;0.77;;;;;;;-141.50;100.00;63355.56;4962833;28;20110;-80
2024/01/21 10:52:11;;;;;;;1.42;0.68;;;;;;;-141.50;100.00;63355.56;4960803;28;20066;-79
2024/01/21 10:54:38;;;;;;;3.00;0.80;;;;;;;-141.50;100.00;63355.56;4953487;28;20046;-79
2024/01/21 10:57:06;;;;;;;0.95;0.45;;;;;;;-141.50;100.00;63355.56;4992933;28;20544;-79
2024/01/21 10:59:38;;;;;;;3.08;0.77;;;;;;;-141.50;100.00;63355.56;4966389;28;20043;-79
2024/01/21 11:02:07;;;;;;;1.85;0.82;;;;;;;-141.50;100.00;63355.56;4952299;28;20051;-80
2024/01/21 11:04:34;;;;;;;3.13;0.95;;;;;;;-141.50;100.00;63355.56;4961475;28;20054;-80
2024/01/21 11:07:03;;;;;;;1.15;0.50;;;;;;;-141.50;100.00;63355.56;4959642;28;20042;-80